createdAt,value
2023-07-18T00:01:41.018Z,101988.59
2023-07-18T00:04:08.583Z,101990.28
2023-07-18T00:06:38.522Z,101985.94
2023-07-18T00:09:05.500Z,101984.06
2023-07-18T00:11:32.275Z,101975.25
2023-07-18T00:13:58.946Z,101986.13
2023-07-18T00:16:25.641Z,101976.97
2023-07-18T00:18:52.319Z,101969.72
2023-07-18T00:21:19.200Z,101973.25
2023-07-18T00:23:46.383Z,101973.25
2023-07-18T00:26:12.988Z,101980.56
2023-07-18T00:28:40.192Z,101980.66
2023-07-18T00:31:06.900Z,101968.78
2023-07-18T00:33:33.540Z,101973.38
2023-07-18T00:36:00.177Z,101962.56
2023-07-18T00:38:26.793Z,101975.50
2023-07-18T00:40:54.193Z,101966.38
2023-07-18T00:43:20.838Z,101973.63
2023-07-18T00:45:49.421Z,101973.47
2023-07-18T00:48:16.186Z,101975.31
2023-07-18T00:50:42.806Z,101969.13
2023-07-18T00:53:09.753Z,101967.38
2023-07-18T00:55:36.330Z,101971.75
2023-07-18T00:58:03.482Z,101971.84
2023-07-18T01:00:30.121Z,101970.03
2023-07-18T01:02:56.850Z,101976.28
2023-07-18T01:05:23.735Z,101966.44
2023-07-18T01:07:51.663Z,101973.66
2023-07-18T01:10:27.116Z,101968.13
2023-07-18T01:12:58.410Z,101971.75
2023-07-18T01:15:34.586Z,101965.50
2023-07-18T01:18:07.636Z,101963.69
2023-07-18T01:20:34.459Z,101954.75
2023-07-18T01:23:04.797Z,101962.81
2023-07-18T01:25:32.289Z,101958.44
2023-07-18T01:28:00.799Z,101962.91
2023-07-18T01:30:28.448Z,101955.63
2023-07-18T01:32:55.494Z,101956.66
2023-07-18T01:35:27.260Z,101951.25
2023-07-18T01:37:55.097Z,101956.66
2023-07-18T01:40:22.811Z,101959.41
2023-07-18T01:42:53.195Z,101958.44
2023-07-18T01:45:21.155Z,101959.50
2023-07-18T01:47:50.551Z,101954.91
2023-07-18T01:50:17.628Z,101954.97
2023-07-18T01:52:44.471Z,101950.47
2023-07-18T01:55:11.203Z,101951.44
2023-07-18T01:57:40.406Z,101953.16
2023-07-18T02:00:12.461Z,101943.34
2023-07-18T02:02:42.303Z,101948.69
2023-07-18T02:05:09.530Z,101946.91
2023-07-18T02:07:37.543Z,101945.13
2023-07-18T02:10:04.385Z,101948.75
2023-07-18T02:12:31.049Z,101946.13
2023-07-18T02:14:57.663Z,101942.56
2023-07-18T02:17:24.368Z,101947.03
2023-07-18T02:19:51.010Z,101939.91
2023-07-18T02:22:20.499Z,101941.69
2023-07-18T02:24:49.591Z,101930.97
2023-07-18T02:27:16.301Z,101928.97
2023-07-18T02:29:42.903Z,101933.66
2023-07-18T02:32:09.643Z,101933.66
2023-07-18T02:34:36.328Z,101939.91
2023-07-18T02:37:02.941Z,101935.47
2023-07-18T02:39:33.677Z,101940.84
2023-07-18T02:42:00.310Z,101943.56
2023-07-18T02:44:27.015Z,101946.22
2023-07-18T02:46:54.554Z,101949.03
2023-07-18T02:49:21.239Z,101942.66
2023-07-18T02:51:47.849Z,101942.66
2023-07-18T02:54:14.442Z,101936.47
2023-07-18T02:56:41.046Z,101938.34
2023-07-18T02:59:07.631Z,101940.03
2023-07-18T03:01:35.366Z,101947.19
2023-07-18T03:04:02.232Z,101944.44
2023-07-18T03:06:30.548Z,101939.22
2023-07-18T03:08:58.661Z,101942.78
2023-07-18T03:11:26.762Z,101943.69
2023-07-18T03:13:53.920Z,101949.16
2023-07-18T03:16:20.547Z,101945.69
2023-07-18T03:18:47.188Z,101950.13
2023-07-18T03:21:14.359Z,101952.78
2023-07-18T03:23:41.502Z,101942.84
2023-07-18T03:26:08.094Z,101943.03
2023-07-18T03:28:34.689Z,101952.88
2023-07-18T03:31:01.657Z,101941.22
2023-07-18T03:33:28.262Z,101945.69
2023-07-18T03:35:55.031Z,101943.81
2023-07-18T03:38:21.660Z,101942.09
2023-07-18T03:40:48.724Z,101947.38
2023-07-18T03:43:15.315Z,101945.72
2023-07-18T03:45:41.996Z,101942.97
2023-07-18T03:48:08.699Z,101943.81
2023-07-18T03:50:35.364Z,101939.41
2023-07-18T03:53:01.951Z,101938.53
2023-07-18T03:55:28.570Z,101950.28
2023-07-18T03:57:55.164Z,101954.97
2023-07-18T04:00:22.487Z,101951.34
2023-07-18T04:02:50.086Z,101954.22
2023-07-18T04:05:18.753Z,101941.59
2023-07-18T04:07:48.027Z,101941.47
2023-07-18T04:10:14.698Z,101947.69
2023-07-18T04:12:41.999Z,101939.47
2023-07-18T04:15:09.033Z,101942.16
2023-07-18T04:17:36.041Z,101938.41
2023-07-18T04:20:04.939Z,101944.06
2023-07-18T04:22:31.627Z,101942.28
2023-07-18T04:24:58.411Z,101934.31
2023-07-18T04:27:27.595Z,101933.41
2023-07-18T04:29:55.054Z,101931.63
2023-07-18T04:32:21.845Z,101927.88
2023-07-18T04:34:49.580Z,101935.25
2023-07-18T04:37:16.793Z,101932.69
2023-07-18T04:39:43.399Z,101928.13
2023-07-18T04:42:10.059Z,101928.09
2023-07-18T04:44:40.571Z,101926.22
2023-07-18T04:47:09.752Z,101928.97
2023-07-18T04:49:36.613Z,101926.31
2023-07-18T04:52:03.393Z,101926.44
2023-07-18T04:54:29.990Z,101929.84
2023-07-18T04:56:56.647Z,101930.75
2023-07-18T04:59:24.552Z,101927.13
2023-07-18T05:01:55.232Z,101927.25
2023-07-18T05:04:22.027Z,101926.22
2023-07-18T05:06:52.489Z,101926.16
2023-07-18T05:09:21.547Z,101930.81
2023-07-18T05:11:48.862Z,101933.50
2023-07-18T05:14:15.479Z,101924.56
2023-07-18T05:16:42.120Z,101928.19
2023-07-18T05:19:08.717Z,101922.00
2023-07-18T05:21:35.436Z,101930.06
2023-07-18T05:24:02.129Z,101928.09
2023-07-18T05:26:28.809Z,101929.16
2023-07-18T05:28:55.420Z,101932.75
2023-07-18T05:31:22.713Z,101929.22
2023-07-18T05:33:49.896Z,101930.09
2023-07-18T05:36:17.562Z,101925.63
2023-07-18T05:38:46.313Z,101932.69
2023-07-18T05:41:12.997Z,101930.88
2023-07-18T05:43:39.596Z,101933.59
2023-07-18T05:46:06.304Z,101928.19
2023-07-18T05:48:33.005Z,101933.66
2023-07-18T05:51:01.476Z,101928.28
2023-07-18T05:53:28.179Z,101931.84
2023-07-18T05:55:54.863Z,101938.94
2023-07-18T05:58:21.466Z,101931.84
2023-07-18T06:00:48.189Z,101938.91
2023-07-18T06:03:14.998Z,101933.59
2023-07-18T06:05:42.440Z,101941.69
2023-07-18T06:08:11.704Z,101935.47
2023-07-18T06:10:38.360Z,101943.75
2023-07-18T06:13:04.965Z,101946.47
2023-07-18T06:15:31.761Z,101935.69
2023-07-18T06:17:58.469Z,101942.69
2023-07-18T06:20:25.161Z,101944.56
2023-07-18T06:22:51.833Z,101944.56
2023-07-18T06:25:18.594Z,101950.94
2023-07-18T06:27:45.307Z,101955.38
2023-07-18T06:30:12.231Z,101955.41
2023-07-18T06:32:40.565Z,101949.97
2023-07-18T06:35:22.985Z,101954.41
2023-07-18T06:37:50.056Z,101948.13
2023-07-18T06:40:16.828Z,101950.03
2023-07-18T06:42:43.723Z,101946.25
2023-07-18T06:45:10.691Z,101952.59
2023-07-18T06:47:37.336Z,101951.59
2023-07-18T06:50:04.143Z,101948.03
2023-07-18T06:52:32.511Z,101950.78
2023-07-18T06:55:00.601Z,101944.34
2023-07-18T06:57:27.286Z,101948.22
2023-07-18T06:59:54.642Z,101946.41
2023-07-18T07:02:21.290Z,101949.91
2023-07-18T07:04:47.968Z,101939.22
2023-07-18T07:07:19.407Z,101940.97
2023-07-18T07:09:46.081Z,101943.53
2023-07-18T07:12:22.260Z,101946.34
2023-07-18T07:14:51.973Z,101946.25
2023-07-18T07:17:18.662Z,101949.22
2023-07-18T07:19:45.739Z,101953.84
2023-07-18T07:22:14.158Z,101961.06
2023-07-18T07:24:40.806Z,101959.16
2023-07-18T07:27:08.370Z,101962.53
2023-07-18T07:29:35.657Z,101960.91
2023-07-18T07:32:11.460Z,101960.78
2023-07-18T07:34:39.935Z,101955.75
2023-07-18T07:37:09.952Z,101951.06
2023-07-18T07:39:36.689Z,101958.94
2023-07-18T07:42:03.378Z,101958.34
2023-07-18T07:44:30.139Z,101962.56
2023-07-18T07:46:58.576Z,101950.84
2023-07-18T07:49:25.418Z,101958.72
2023-07-18T07:51:52.057Z,101953.09
2023-07-18T07:54:18.649Z,101951.53
2023-07-18T07:56:45.387Z,101948.59
2023-07-18T07:59:12.353Z,101951.22
2023-07-18T08:01:39.806Z,101943.13
2023-07-18T08:04:06.886Z,101943.94
2023-07-18T08:06:34.996Z,101943.91
2023-07-18T08:09:03.617Z,101949.34
2023-07-18T08:11:30.337Z,101941.97
2023-07-18T08:13:57.442Z,101940.28
2023-07-18T08:16:24.184Z,101941.97
2023-07-18T08:18:50.825Z,101941.09
2023-07-18T08:21:20.145Z,101950.84
2023-07-18T08:23:47.171Z,101940.84
2023-07-18T08:26:14.325Z,101946.59
2023-07-18T08:28:41.123Z,101936.50
2023-07-18T08:31:09.442Z,101936.56
2023-07-18T08:33:36.054Z,101934.72
2023-07-18T08:36:02.644Z,101939.06
2023-07-18T08:38:29.229Z,101937.34
2023-07-18T08:40:56.855Z,101934.59
2023-07-18T08:43:23.718Z,101929.22
2023-07-18T08:45:51.591Z,101929.25
2023-07-18T08:48:18.294Z,101928.38
2023-07-18T08:50:45.827Z,101930.88
2023-07-18T08:53:12.467Z,101929.09
2023-07-18T08:55:40.785Z,101917.22
2023-07-18T08:58:07.453Z,101907.13
2023-07-18T09:00:34.787Z,101918.09
2023-07-18T09:03:01.476Z,101916.31
2023-07-18T09:05:29.779Z,101915.28
2023-07-18T09:07:57.731Z,101911.81
2023-07-18T09:10:25.013Z,101904.41
2023-07-18T09:12:51.623Z,101904.38
2023-07-18T09:15:20.492Z,101897.00
2023-07-18T09:17:57.933Z,101900.66
2023-07-18T09:20:26.999Z,101896.03
2023-07-18T09:22:58.029Z,101900.38
2023-07-18T09:25:25.829Z,101905.81
2023-07-18T09:27:53.987Z,101901.22
2023-07-18T09:30:30.605Z,101901.16
2023-07-18T09:32:57.240Z,101897.44
2023-07-18T09:35:27.722Z,101902.78
2023-07-18T09:37:54.339Z,101897.28
2023-07-18T09:40:20.963Z,101893.66
2023-07-18T09:42:49.244Z,101902.47
2023-07-18T09:45:16.947Z,101904.16
2023-07-18T09:47:44.800Z,101907.72
2023-07-18T09:50:15.414Z,101895.88
2023-07-18T09:52:52.779Z,101894.91
2023-07-18T09:55:23.262Z,101896.66
2023-07-18T09:57:53.768Z,101898.44
2023-07-18T10:00:21.174Z,101893.13
2023-07-18T10:02:48.645Z,101892.19
2023-07-18T10:05:16.418Z,101895.72
2023-07-18T10:07:43.352Z,101896.66
2023-07-18T10:10:11.415Z,101891.34
2023-07-18T10:12:39.113Z,101895.72
2023-07-18T10:15:09.140Z,101885.81
2023-07-18T10:17:40.755Z,101885.91
2023-07-18T10:20:16.700Z,101888.50
2023-07-18T10:22:49.444Z,101885.69
2023-07-18T10:25:18.569Z,101892.94
2023-07-18T10:27:46.413Z,101885.81
2023-07-18T10:30:16.924Z,101885.75
2023-07-18T10:32:57.643Z,101890.13
2023-07-18T10:35:26.775Z,101880.97
2023-07-18T10:37:58.376Z,101888.13
2023-07-18T10:40:40.197Z,101883.75
2023-07-18T10:43:08.024Z,101889.03
2023-07-18T10:45:42.214Z,101879.97
2023-07-18T10:48:19.352Z,101879.91
2023-07-18T10:50:47.465Z,101884.28
2023-07-18T10:53:19.703Z,101876.22
2023-07-18T10:55:47.683Z,101868.88
2023-07-18T10:58:20.923Z,101867.13
2023-07-18T11:00:50.520Z,101872.59
2023-07-18T11:03:28.708Z,101854.53
2023-07-18T11:05:57.732Z,101851.91
2023-07-18T11:08:29.010Z,101849.00
2023-07-18T11:11:02.369Z,101855.31
2023-07-18T11:13:32.450Z,101854.41
2023-07-18T11:16:01.408Z,101848.81
2023-07-18T11:18:32.509Z,101858.66
2023-07-18T11:21:03.162Z,101845.97
2023-07-18T11:23:29.858Z,101844.19
2023-07-18T11:25:59.455Z,101825.28
2023-07-18T11:28:30.518Z,101829.66
2023-07-18T11:30:57.170Z,101841.47
2023-07-18T11:33:28.973Z,101843.38
2023-07-18T11:35:55.579Z,101841.66
2023-07-18T11:38:25.836Z,101840.78
2023-07-18T11:40:53.312Z,101849.59
2023-07-18T11:43:20.753Z,101843.31
2023-07-18T11:45:48.104Z,101836.84
2023-07-18T11:48:15.090Z,101837.97
2023-07-18T11:50:46.905Z,101845.09
2023-07-18T11:53:14.745Z,101832.50
2023-07-18T11:55:41.329Z,101835.94
2023-07-18T11:58:09.293Z,101839.56
2023-07-18T12:00:36.912Z,101828.78
2023-07-18T12:03:04.762Z,101834.09
2023-07-18T12:05:31.469Z,101828.75
2023-07-18T12:07:58.305Z,101825.22
2023-07-18T12:10:26.332Z,101830.63
2023-07-18T12:12:53.165Z,101831.50
2023-07-18T12:15:19.767Z,101833.53
2023-07-18T12:17:47.572Z,101828.25
2023-07-18T12:20:14.312Z,101836.34
2023-07-18T12:22:41.032Z,101839.00
2023-07-18T12:25:08.112Z,101836.19
2023-07-18T12:27:36.091Z,101829.91
2023-07-18T12:30:02.806Z,101830.88
2023-07-18T12:32:32.014Z,101824.59
2023-07-18T12:34:59.183Z,101829.09
2023-07-18T12:37:28.553Z,101829.06
2023-07-18T12:39:59.918Z,101825.41
2023-07-18T12:42:29.383Z,101827.19
2023-07-18T12:44:55.989Z,101821.72
2023-07-18T12:47:22.686Z,101821.00
2023-07-18T12:52:18.818Z,101812.97
2023-07-18T12:54:45.434Z,101813.13
2023-07-18T12:57:12.101Z,101809.59
2023-07-18T12:59:38.743Z,101819.38
2023-07-18T13:02:08.650Z,101817.44
2023-07-18T13:04:35.306Z,101813.91
2023-07-18T13:07:03.831Z,101809.31
2023-07-18T13:09:30.571Z,101809.41
2023-07-18T13:11:57.258Z,101810.25
2023-07-18T13:14:23.945Z,101811.38
2023-07-18T13:16:50.704Z,101809.50
2023-07-18T13:19:19.139Z,101809.50
2023-07-18T13:21:45.805Z,101804.06
2023-07-18T13:24:12.464Z,101800.44
2023-07-18T13:26:39.176Z,101795.28
2023-07-18T13:29:07.271Z,101795.16
2023-07-18T13:31:35.941Z,101796.81
2023-07-18T13:34:05.762Z,101797.84
2023-07-18T13:36:32.962Z,101789.63
2023-07-18T13:38:59.988Z,101794.03
2023-07-18T13:41:26.613Z,101788.50
2023-07-18T13:43:53.860Z,101786.06
2023-07-18T13:46:20.828Z,101793.25
2023-07-18T13:48:47.610Z,101790.34
2023-07-18T13:51:14.269Z,101782.22
2023-07-18T13:53:40.910Z,101777.63
2023-07-18T13:56:07.640Z,101784.00
2023-07-18T13:58:34.370Z,101775.75
2023-07-18T14:01:01.003Z,101773.06
2023-07-18T14:03:35.416Z,101773.91
2023-07-18T14:06:04.887Z,101779.41
2023-07-18T14:08:33.055Z,101776.56
2023-07-18T14:10:59.734Z,101777.59
2023-07-18T14:13:27.185Z,101782.09
2023-07-18T14:15:53.815Z,101783.84
2023-07-18T14:18:20.884Z,101779.31
2023-07-18T14:20:47.489Z,101773.00
2023-07-18T14:23:14.153Z,101771.16
2023-07-18T14:25:40.868Z,101766.72
2023-07-18T14:28:07.632Z,101754.81
2023-07-18T14:30:34.230Z,101749.41
2023-07-18T14:33:02.896Z,101745.56
2023-07-18T14:35:32.242Z,101749.22
2023-07-18T14:38:01.367Z,101754.81
2023-07-18T14:40:28.019Z,101756.50
2023-07-18T14:42:55.692Z,101758.31
2023-07-18T14:45:22.293Z,101753.78
2023-07-18T14:47:49.004Z,101746.59
2023-07-18T14:50:16.580Z,101752.84
2023-07-18T14:52:43.330Z,101747.25
2023-07-18T14:55:10.014Z,101752.66
2023-07-18T14:57:36.633Z,101751.66
2023-07-18T15:00:06.182Z,101738.06
2023-07-18T15:02:32.948Z,101731.84
2023-07-18T15:04:59.568Z,101736.22
2023-07-18T15:07:27.797Z,101729.09
2023-07-18T15:09:54.445Z,101721.75
2023-07-18T15:12:21.091Z,101719.78
2023-07-18T15:14:47.737Z,101710.78
2023-07-18T15:17:14.372Z,101718.91
2023-07-18T15:19:41.789Z,101710.78
2023-07-18T15:22:08.386Z,101713.47
2023-07-18T15:24:36.218Z,101710.72
2023-07-18T15:27:03.506Z,101704.44
2023-07-18T15:29:30.294Z,101701.53
2023-07-18T15:31:56.896Z,101707.84
2023-07-18T15:34:23.515Z,101708.66
2023-07-18T15:36:50.711Z,101701.34
2023-07-18T15:39:17.357Z,101694.25
2023-07-18T15:41:43.970Z,101685.00
2023-07-18T15:44:10.612Z,101697.59
2023-07-18T15:46:38.308Z,101693.81
2023-07-18T15:49:06.217Z,101690.31
2023-07-18T15:51:32.924Z,101697.59
2023-07-18T15:53:59.634Z,101679.31
2023-07-18T15:56:26.250Z,101675.81
2023-07-18T15:58:53.611Z,101689.28
2023-07-18T16:01:20.419Z,101681.22
2023-07-18T16:03:47.357Z,101690.31
2023-07-18T16:06:16.016Z,101686.56
2023-07-18T16:08:42.673Z,101681.91
2023-07-18T16:11:09.308Z,101682.69
2023-07-18T16:13:36.457Z,101675.56
2023-07-18T16:16:05.807Z,101676.38
2023-07-18T16:18:33.006Z,101681.81
2023-07-18T16:20:59.609Z,101674.41
2023-07-18T16:23:26.294Z,101667.22
2023-07-18T16:25:52.937Z,101666.19
2023-07-18T16:28:19.700Z,101678.84
2023-07-18T16:30:47.002Z,101682.38
2023-07-18T16:33:13.781Z,101680.75
2023-07-18T16:35:40.515Z,101678.75
2023-07-18T16:38:07.513Z,101667.84
2023-07-18T16:40:34.258Z,101666.19
2023-07-18T16:43:00.930Z,101662.50
2023-07-18T16:45:27.528Z,101667.94
2023-07-18T16:47:54.188Z,101663.41
2023-07-18T16:50:23.899Z,101662.41
2023-07-18T16:52:50.510Z,101653.34
2023-07-18T16:55:17.150Z,101655.22
2023-07-18T16:57:43.739Z,101656.16
2023-07-18T17:00:10.942Z,101657.09
2023-07-18T17:02:37.548Z,101664.28
2023-07-18T17:05:04.417Z,101658.88
2023-07-18T17:07:32.135Z,101660.63
2023-07-18T17:10:00.561Z,101651.56
2023-07-18T17:12:27.213Z,101657.78
2023-07-18T17:14:53.804Z,101652.34
2023-07-18T17:17:23.226Z,101653.34
2023-07-18T17:20:04.634Z,101663.28
2023-07-18T17:22:34.268Z,101655.00
2023-07-18T17:25:00.900Z,101657.69
2023-07-18T17:27:29.022Z,101655.06
2023-07-18T17:29:55.665Z,101653.22
2023-07-18T17:32:22.454Z,101654.22
2023-07-18T17:34:49.068Z,101657.88
2023-07-18T17:37:16.304Z,101656.94
2023-07-18T17:39:43.437Z,101660.53
2023-07-18T17:42:11.022Z,101649.72
2023-07-18T17:44:37.694Z,101647.09
2023-07-18T17:47:04.543Z,101644.28
2023-07-18T17:49:31.297Z,101642.59
2023-07-18T17:51:57.886Z,101636.38
2023-07-18T17:54:25.902Z,101633.75
2023-07-18T17:56:52.563Z,101628.34
2023-07-18T17:59:19.743Z,101634.63
2023-07-18T18:01:47.958Z,101627.28
2023-07-18T18:04:14.560Z,101622.81
2023-07-18T18:06:43.762Z,101624.69
2023-07-18T18:09:11.212Z,101625.56
2023-07-18T18:11:37.790Z,101621.03
2023-07-18T18:14:04.396Z,101613.84
2023-07-18T18:16:31.021Z,101614.84
2023-07-18T18:18:58.063Z,101618.44
2023-07-18T18:21:26.801Z,101618.38
2023-07-18T18:23:53.522Z,101603.88
2023-07-18T18:26:21.207Z,101603.88
2023-07-18T18:28:48.021Z,101592.25
2023-07-18T18:31:14.823Z,101595.91
2023-07-18T18:33:41.485Z,101596.81
2023-07-18T18:36:08.072Z,101592.25
2023-07-18T18:38:34.662Z,101591.50
2023-07-18T18:41:04.233Z,101593.38
2023-07-18T18:43:31.424Z,101588.84
2023-07-18T18:45:58.182Z,101592.25
2023-07-18T18:48:24.880Z,101592.41
2023-07-18T18:50:53.061Z,101589.34
2023-07-18T18:53:21.184Z,101586.84
2023-07-18T18:55:47.798Z,101587.78
2023-07-18T18:58:14.695Z,101585.06
2023-07-18T19:00:41.356Z,101574.34
2023-07-18T19:03:08.094Z,101583.25
2023-07-18T19:05:37.686Z,101579.78
2023-07-18T19:08:04.468Z,101575.19
2023-07-18T19:10:31.206Z,101577.91
2023-07-18T19:12:57.834Z,101581.56
2023-07-18T19:15:24.488Z,101573.53
2023-07-18T19:17:51.134Z,101576.22
2023-07-18T19:20:17.784Z,101569.81
2023-07-18T19:22:44.465Z,101574.34
2023-07-18T19:25:11.271Z,101576.53
2023-07-18T19:27:38.178Z,101575.69
2023-07-18T19:30:05.950Z,101578.25
2023-07-18T19:32:32.626Z,101571.31
2023-07-18T19:34:59.273Z,101575.91
2023-07-18T19:37:25.897Z,101573.00
2023-07-18T19:39:53.122Z,101575.53
2023-07-18T19:42:19.768Z,101572.88
2023-07-18T19:44:48.463Z,101578.50
2023-07-18T19:47:15.413Z,101573.22
2023-07-18T19:49:42.216Z,101564.25
2023-07-18T19:52:08.850Z,101558.81
2023-07-18T19:54:35.606Z,101562.38
2023-07-18T19:57:02.241Z,101563.38
2023-07-18T19:59:31.089Z,101560.81
2023-07-18T20:01:57.773Z,101560.69
2023-07-18T20:04:24.626Z,101560.81
2023-07-18T20:06:52.122Z,101559.25
2023-07-18T20:09:18.716Z,101552.69
2023-07-18T20:11:45.376Z,101559.25
2023-07-18T20:14:11.968Z,101553.53
2023-07-18T20:16:38.851Z,101553.63
2023-07-18T20:19:05.476Z,101557.25
2023-07-18T20:21:32.078Z,101551.75
2023-07-18T20:24:00.137Z,101550.41
2023-07-18T20:26:27.038Z,101543.22
2023-07-18T20:28:53.655Z,101546.66
2023-07-18T20:31:20.907Z,101547.84
2023-07-18T20:33:48.354Z,101550.63
2023-07-18T20:36:15.168Z,101554.91
2023-07-18T20:38:43.928Z,101559.34
2023-07-18T20:41:10.664Z,101552.00
2023-07-18T20:43:37.270Z,101550.19
2023-07-18T20:46:04.947Z,101554.91
2023-07-18T20:48:34.077Z,101538.31
2023-07-18T20:51:00.768Z,101544.78
2023-07-18T20:53:28.979Z,101541.34
2023-07-18T20:55:56.339Z,101539.47
2023-07-18T20:58:23.943Z,101539.56
2023-07-18T21:00:50.568Z,101539.88
2023-07-18T21:03:17.389Z,101536.13
2023-07-18T21:05:45.553Z,101528.06
2023-07-18T21:08:13.614Z,101528.34
2023-07-18T21:10:40.261Z,101531.03
2023-07-18T21:13:09.215Z,101540.31
2023-07-18T21:15:36.093Z,101532.28
2023-07-18T21:18:04.347Z,101537.75
2023-07-18T21:20:31.165Z,101541.59
2023-07-18T21:22:57.869Z,101533.31
2023-07-18T21:25:24.514Z,101526.66
2023-07-18T21:27:51.233Z,101521.44
2023-07-18T21:30:17.868Z,101515.41
2023-07-18T21:32:44.970Z,101510.16
2023-07-18T21:35:11.710Z,101517.47
2023-07-18T21:37:38.327Z,101521.19
2023-07-18T21:40:07.087Z,101523.81
2023-07-18T21:42:33.716Z,101506.63
2023-07-18T21:45:00.340Z,101512.00
2023-07-18T21:47:27.971Z,101519.25
2023-07-18T21:49:54.616Z,101508.28
2023-07-18T21:52:21.246Z,101506.63
2023-07-18T21:54:47.870Z,101506.63
2023-07-18T21:57:17.025Z,101499.53
2023-07-18T21:59:44.221Z,101499.44
2023-07-18T22:02:13.836Z,101496.03
2023-07-18T22:04:40.694Z,101494.28
2023-07-18T22:07:11.331Z,101502.56
2023-07-18T22:09:37.977Z,101492.56
2023-07-18T22:12:06.932Z,101490.78
2023-07-18T22:14:33.672Z,101490.91
2023-07-18T22:17:00.263Z,101481.94
2023-07-18T22:19:26.871Z,101471.13
2023-07-18T22:21:53.558Z,101470.13
2023-07-18T22:24:20.750Z,101472.88
2023-07-18T22:26:47.359Z,101475.81
2023-07-18T22:29:13.938Z,101475.88
2023-07-18T22:31:41.027Z,101480.28
2023-07-18T22:34:09.211Z,101476.59
2023-07-18T22:36:35.848Z,101484.75
2023-07-18T22:39:02.554Z,101478.41
2023-07-18T22:41:29.132Z,101485.84
2023-07-18T22:43:57.562Z,101468.69
2023-07-18T22:46:24.377Z,101465.81
2023-07-18T22:48:51.029Z,101470.44
2023-07-18T22:51:17.705Z,101475.09
2023-07-18T22:53:44.413Z,101475.16
2023-07-18T22:56:12.707Z,101467.16
2023-07-18T22:58:39.343Z,101459.97
2023-07-18T23:01:07.074Z,101465.31
2023-07-18T23:03:34.584Z,101467.16
2023-07-18T23:06:01.833Z,101469.94
2023-07-18T23:08:28.569Z,101461.84
2023-07-18T23:10:55.253Z,101459.34
2023-07-18T23:13:21.857Z,101463.91
2023-07-18T23:15:48.532Z,101451.22
2023-07-18T23:18:15.176Z,101449.31
2023-07-18T23:20:42.037Z,101444.88
2023-07-18T23:23:08.833Z,101440.31
2023-07-18T23:25:35.527Z,101443.06
2023-07-18T23:28:02.147Z,101444.88
2023-07-18T23:30:29.085Z,101445.03
2023-07-18T23:32:55.789Z,101439.69
2023-07-18T23:35:25.830Z,101443.19
2023-07-18T23:37:53.134Z,101437.97
2023-07-18T23:40:19.709Z,101439.69
2023-07-18T23:42:46.303Z,101428.22
2023-07-18T23:45:12.897Z,101421.69
2023-07-18T23:47:39.498Z,101423.44
2023-07-18T23:50:06.592Z,101416.28
2023-07-18T23:52:33.339Z,101412.63
2023-07-18T23:54:59.944Z,101418.03
2023-07-18T23:57:26.648Z,101409.16
2023-07-18T23:59:53.261Z,101414.41
